Home > Products > Valid Products > MTR

000
SAUS43 KEAX 260453
MTRCDJ
METAR KCDJ 260452Z AUTO 18009KT 28/23 A2980 RMK AO1 SLP075 T02830228





000
SAUS43 KEAX 260353
MTRCDJ
METAR KCDJ 260352Z AUTO 18008KT 29/23 A2980 RMK AO1 SLP075 T02890228





000
SAUS43 KEAX 260253
MTRCDJ
METAR KCDJ 260252Z AUTO 18008KT 29/23 A2978 RMK AO1 SLP071 T02940233
53004





000
SAUS43 KEAX 260153
MTRCDJ
METAR KCDJ 260152Z AUTO 18008KT 30/23 A2977 RMK AO1 SLP067 T03000233





000
SAUS43 KEAX 260054
MTRCDJ
METAR KCDJ 260052Z AUTO 17004KT 31/24 A2977 RMK AO1 SLP066 T03060244





000
SAUS43 KEAX 252353
MTRCDJ
METAR KCDJ 252352Z AUTO 18007KT 32/24 A2977 RMK AO1 SLP068 T03170244
10328 20267 56006





000
SAUS43 KEAX 252253
MTRCDJ
METAR KCDJ 252252Z AUTO 18011G21KT 32/24 A2977 RMK AO1 SLP068
T03220239





000
SAUS43 KEAX 252153
MTRCDJ
METAR KCDJ 252152Z AUTO 18013G21KT 33/24 A2978 RMK AO1 PK WND
20028/2057 SLP069 T03280239





000
SAUS43 KEAX 252053
MTRCDJ
METAR KCDJ 252052Z AUTO 18012G21KT 33/24 A2979 RMK AO1 SLP073
T03280239 56033





000
SAUS43 KEAX 251953
MTRCDJ
METAR KCDJ 251952Z AUTO 15011G22KT 31/23 A2981 RMK AO1 SLP081
T03110233





000
SAUS43 KEAX 251853
MTRCDJ
METAR KCDJ 251852Z AUTO 12011KT 27/21 A2986 RMK AO1 SLP100 T02720211





000
SAUS43 KEAX 251753
MTRCDJ
METAR KCDJ 251752Z AUTO 11009KT 27/21 A2989 RMK AO1 SLP109 T02720206
10278 20200 58010





000
SAUS43 KEAX 251653
MTRCDJ
METAR KCDJ 251652Z AUTO 12006KT 26/20 A2990 RMK AO1 SLP113 T02610200





000
SAUS43 KEAX 251553
MTRCDJ
METAR KCDJ 251552Z AUTO 11006KT 25/18 A2992 RMK AO1 SLP119 T02500183





000
SAUS43 KEAX 251453
MTRCDJ
METAR KCDJ 251452Z AUTO 12005KT 23/18 A2992 RMK AO1 SLP120 T02330178
56007





000
SAUS43 KEAX 251353
MTRCDJ
METAR KCDJ 251352Z AUTO 12004KT 22/17 A2993 RMK AO1 SLP124 T02220167





000
SAUS43 KEAX 251254
MTRCDJ
METAR KCDJ 251252Z AUTO 18008KT 21/15 A2991 RMK AO1 SLP117 T02110150





000
SAUS43 KEAX 251153
MTRCDJ
METAR KCDJ 251152Z AUTO 16008KT 20/13 A2994 RMK AO1 SLP127 T02000133
10206 20189 50002





000
SAUS43 KEAX 251053
MTRCDJ
METAR KCDJ 251052Z AUTO 15005KT 19/13 A2994 RMK AO1 SLP127 T01940133





000
SAUS43 KEAX 250953
MTRCDJ
METAR KCDJ 250952Z AUTO 13004KT 19/13 A2995 RMK AO1 SLP130 T01940133





000
SAUS43 KEAX 250853
MTRCDJ
METAR KCDJ 250852Z AUTO 14006KT 20/13 A2993 RMK AO1 SLP125 T02000133
55016





000
SAUS43 KEAX 250753
MTRCDJ
METAR KCDJ 250752Z AUTO 16007KT 20/14 A2993 RMK AO1 SLP123 T02000139





000
SAUS43 KEAX 250653
MTRCDJ
METAR KCDJ 250652Z AUTO 16007KT 20/14 A2996 RMK AO1 SLP134 T02000144





000
SAUS43 KEAX 250553
MTRCDJ
METAR KCDJ 250552Z AUTO 15006KT 21/14 A2998 RMK AO1 SLP142 T02060144
10261 20206 402780156 55022





000
SAUS43 KEAX 250453
MTRCDJ
METAR KCDJ 250452Z AUTO 18007KT 21/14 A2997 RMK AO1 SLP138 T02110144





000
SAUS43 KEAX 250353
MTRCDJ
METAR KCDJ 250352Z AUTO VRB03KT 21/15 A3000 RMK AO1 SLP150 T02110150





000
SAUS43 KEAX 250254 COR
MTRCDJ
METAR KCDJ 250252Z AUTO 00000KT 22/15 A3005 RMK AO1 SLP164 T02220150
51004





000
SAUS43 KEAX 250153
MTRCDJ
METAR KCDJ 250152Z AUTO 17004KT 23/15 A3004 RMK AO1 SLP162 T02330150





000
SAUS43 KEAX 250054
MTRCDJ
METAR KCDJ 250052Z AUTO 11003KT 26/16 A3007 RMK AO1 SLP171 T02560156





000
SAUS43 KEAX 242353
MTRCDJ
METAR KCDJ 242352Z AUTO 13004KT 26/16 A3003 RMK AO1 SLP162 T02610156
10278 20256 58015





000
SAUS43 KEAX 242253
MTRCDJ
METAR KCDJ 242252Z AUTO 15006KT 27/14 A3007 RMK AO1 SLP173 T02670144





000
SAUS43 KEAX 242153
MTRCDJ
METAR KCDJ 242152Z AUTO VRB04KT 27/14 A3007 RMK AO1 SLP174 T02670144





000
SAUS43 KEAX 242053
MTRCDJ
METAR KCDJ 242052Z AUTO 14010KT 27/14 A3008 RMK AO1 SLP176 T02670139
56030





000
SAUS43 KEAX 241953
MTRCDJ
METAR KCDJ 241952Z AUTO VRB06KT 26/14 A3009 RMK AO1 SLP181 T02610144





000
SAUS43 KEAX 241853
MTRCDJ
METAR KCDJ 241852Z AUTO 14005KT 27/15 A3014 RMK AO1 SLP198 T02670150





000
SAUS43 KEAX 241753
MTRCDJ
METAR KCDJ 241752Z AUTO 14005KT 26/14 A3017 RMK AO1 SLP206 T02610144
10261 20161 58000





000
SAUS43 KEAX 241653
MTRCDJ
METAR KCDJ 241652Z AUTO 11008KT 26/15 A3018 RMK AO1 SLP207 T02610150





000
SAUS43 KEAX 241553
MTRCDJ
METAR KCDJ 241552Z AUTO VRB06KT 25/15 A3018 RMK AO1 SLP209 T02500150





000
SAUS43 KEAX 241453
MTRCDJ
METAR KCDJ 241452Z AUTO 16006KT 23/15 A3017 RMK AO1 SLP205 T02330150
50000





000
SAUS43 KEAX 241353
MTRCDJ
METAR KCDJ 241352Z AUTO 12005KT 22/14 A3017 RMK AO1 SLP206 T02170144





000
SAUS43 KEAX 241254
MTRCDJ
METAR KCDJ 241252Z AUTO 10003KT 19/15 A3018 RMK AO1 SLP208 T01940150





000
SAUS43 KEAX 241153
MTRCDJ
METAR KCDJ 241152Z AUTO 00000KT 16/14 A3017 RMK AO1 SLP206 T01610144
10183 20156 53006





000
SAUS43 KEAX 241053
MTRCDJ
METAR KCDJ 241052Z AUTO 00000KT 16/14 A3016 RMK AO1 SLP203 T01560139





000
SAUS43 KEAX 240953
MTRCDJ
METAR KCDJ 240952Z AUTO 00000KT 16/14 A3015 RMK AO1 SLP199 T01610144





000
SAUS43 KEAX 240853
MTRCDJ
METAR KCDJ 240852Z AUTO 00000KT 16/14 A3015 RMK AO1 SLP199 T01610144
58005





000
SAUS43 KEAX 240753
MTRCDJ
METAR KCDJ 240752Z AUTO 00000KT 17/14 A3016 RMK AO1 SLP200 T01670144





000
SAUS43 KEAX 240653
MTRCDJ
METAR KCDJ 240652Z AUTO 00000KT 17/15 A3016 RMK AO1 SLP202 T01720150





000
SAUS43 KEAX 240553
MTRCDJ
METAR KCDJ 240552Z AUTO 00000KT 18/15 A3016 RMK AO1 SLP203 T01830150
10283 20183 403060183 51003





000
SAUS43 KEAX 240453
MTRCDJ
METAR KCDJ 240452Z AUTO 04003KT 21/15 A3016 RMK AO1 SLP201 T02110150





000
SAUS43 KEAX 240353
MTRCDJ
METAR KCDJ 240352Z AUTO 05003KT 22/16 A3016 RMK AO1 SLP200 T02170156





000
SAUS43 KEAX 240253
MTRCDJ
METAR KCDJ 240252Z AUTO 05004KT 23/16 A3015 RMK AO1 SLP199 T02280156
53012





000
SAUS43 KEAX 240153
MTRCDJ
METAR KCDJ 240152Z AUTO 03004KT 24/16 A3014 RMK AO1 SLP193 T02440156





000
SAUS43 KEAX 240053
MTRCDJ
METAR KCDJ 240052Z AUTO 04007KT 27/16 A3013 RMK AO1 SLP189 T02670161





000
SAUS43 KEAX 232353
MTRCDJ
METAR KCDJ 232352Z AUTO 02008KT 28/16 A3012 RMK AO1 SLP186 T02830161
10306 20283 55003





000
SAUS43 KEAX 232254
MTRCDJ
METAR KCDJ 232252Z AUTO 02007KT 29/17 A3011 RMK AO1 SLP183 T02940167





000
SAUS43 KEAX 232153
MTRCDJ
METAR KCDJ 232152Z AUTO 35006KT 30/17 A3012 RMK AO1 SLP186 T03000167





000
SAUS43 KEAX 232053
MTRCDJ
METAR KCDJ 232052Z AUTO 03009KT 30/16 A3013 RMK AO1 SLP187 T03000161
56015





000
SAUS43 KEAX 231953
MTRCDJ
METAR KCDJ 231952Z AUTO 02007KT 31/17 A3014 RMK AO1 SLP191 T03060167





000
SAUS43 KEAX 231853
MTRCDJ
METAR KCDJ 231852Z AUTO 02012G17KT 30/17 A3015 RMK AO1 SLP195
T03000167





000
SAUS43 KEAX 231753
MTRCDJ
METAR KCDJ 231752Z AUTO 36007G16KT 29/18 A3017 RMK AO1 SLP202
T02940178 10300 20217 50006





000
SAUS43 KEAX 231653
MTRCDJ
METAR KCDJ 231652Z AUTO 35007KT 29/19 A3018 RMK AO1 SLP203 T02890189





000
SAUS43 KEAX 231553
MTRCDJ
METAR KCDJ 231552Z AUTO 04010KT 28/19 A3016 RMK AO1 SLP198 T02780189





000
SAUS43 KEAX 231453
MTRCDJ
METAR KCDJ 231452Z AUTO 03009KT 26/19 A3015 RMK AO1 SLP196 T02610189
50003





000
SAUS43 KEAX 231353
MTRCDJ
METAR KCDJ 231352Z AUTO 04008KT 25/18 A3016 RMK AO1 SLP197 T02500183





000
SAUS43 KEAX 231253
MTRCDJ
METAR KCDJ 231252Z AUTO 01005KT 23/19 A3015 RMK AO1 SLP194 T02330189





000
SAUS43 KEAX 231153
MTRCDJ
METAR KCDJ 231152Z AUTO VRB04KT 22/19 A3014 RMK AO1 SLP192 T02170189
10272 20211 53010





000
SAUS43 KEAX 231053
MTRCDJ
METAR KCDJ 231052Z AUTO 02005KT 22/19 A3012 RMK AO1 SLP185 T02170189





000
SAUS43 KEAX 230953
MTRCDJ
METAR KCDJ 230952Z AUTO 36005KT 23/19 A3011 RMK AO1 SLP179 T02280194





000
SAUS43 KEAX 230854
MTRCDJ
METAR KCDJ 230852Z AUTO VRB04KT 23/20 A3011 RMK AO1 SLP182 T02330200
52005





000
SAUS43 KEAX 230753
MTRCDJ
METAR KCDJ 230752Z AUTO VRB05KT 24/20 A3011 RMK AO1 SLP180 T02440200





000
SAUS43 KEAX 230653
MTRCDJ
METAR KCDJ 230652Z AUTO 01008KT 26/21 A3010 RMK AO1 SLP176 T02610206





000
SAUS43 KEAX 230554
MTRCDJ
METAR KCDJ 230552Z AUTO 01008KT 27/21 A3010 RMK AO1 SLP175 T02720211
10344 20272 403560244 53021





    US Dept of Commerce
    National Oceanic and Atmospheric Administration
    National Weather Service
    1325 East West Highway
    Silver Spring, MD 20910
    Page Author: NWS Internet Services Team
Disclaimer
Information Quality
Credits
Glossary
Privacy Policy
Freedom of Information Act (FOIA)
About Us
Career Opportunities